Time;durP1;ratioP1;P1;durP2;ratioP2;P2;SDS_P1;SDS_P2;PMS_P1;PMS_P2;Temp;Humidity;BMP_temperature;BMP_pressure;BME280_temperature;BME280_humidity;BME280_pressure;Samples;Min_cycle;Max_cycle;Signal;HPM_P1;HPM_P2
2022/06/30 00:01:44;;;;;;;4.60;4.20;;;17.70;99.90;;;;;;5035441;28;20535;-76
2022/06/30 00:04:10;;;;;;;4.30;3.90;;;17.70;99.90;;;;;;5035431;28;20460;-76
2022/06/30 00:06:37;;;;;;;4.90;4.40;;;17.70;99.90;;;;;;5034754;28;20456;-76
2022/06/30 00:09:06;;;;;;;5.07;4.03;;;17.70;99.90;;;;;;5034991;28;20456;-76
2022/06/30 00:11:32;;;;;;;4.63;4.13;;;17.60;99.90;;;;;;5034489;28;20962;-76
2022/06/30 00:13:59;;;;;;;5.70;4.50;;;17.60;99.90;;;;;;5035011;28;20587;-76
2022/06/30 00:16:26;;;;;;;6.83;4.00;;;17.60;99.90;;;;;;5035163;28;20457;-77
2022/06/30 00:18:53;;;;;;;4.50;4.17;;;17.60;99.90;;;;;;5034643;28;20484;-76
2022/06/30 00:21:20;;;;;;;4.50;4.10;;;17.60;99.90;;;;;;5034154;28;20484;-76
2022/06/30 00:23:46;;;;;;;6.13;4.40;;;17.50;99.90;;;;;;5034652;28;20511;-76
2022/06/30 00:26:14;;;;;;;4.80;4.10;;;17.50;99.90;;;;;;5034544;28;20460;-76
2022/06/30 00:28:41;;;;;;;3.90;3.60;;;17.50;99.90;;;;;;5034422;28;20503;-76
2022/06/30 00:31:08;;;;;;;5.60;3.70;;;17.50;99.90;;;;;;5033226;28;20488;-76
2022/06/30 00:33:35;;;;;;;4.50;4.10;;;17.40;99.90;;;;;;5033958;28;20467;-76
2022/06/30 00:36:02;;;;;;;4.40;4.00;;;17.40;99.90;;;;;;5034315;28;20460;-76
2022/06/30 00:38:28;;;;;;;6.13;3.73;;;17.40;99.90;;;;;;5033556;28;20486;-76
2022/06/30 00:40:55;;;;;;;5.10;3.70;;;17.30;99.90;;;;;;5032903;28;20491;-76
2022/06/30 00:43:23;;;;;;;4.53;4.00;;;17.30;99.90;;;;;;5033933;28;20467;-76
2022/06/30 00:45:50;;;;;;;4.67;4.27;;;17.30;99.90;;;;;;5033065;28;20471;-76
2022/06/30 00:48:18;;;;;;;4.67;4.27;;;17.30;99.90;;;;;;5033526;28;20487;-76
2022/06/30 00:50:45;;;;;;;4.97;4.13;;;17.30;99.90;;;;;;5032996;28;20484;-75
2022/06/30 00:53:13;;;;;;;4.23;3.93;;;17.20;99.90;;;;;;5033768;28;20842;-75
2022/06/30 00:55:40;;;;;;;4.33;3.93;;;17.20;99.90;;;;;;5033269;28;20948;-76
2022/06/30 00:58:08;;;;;;;4.40;3.90;;;17.10;99.90;;;;;;5033456;28;20516;-75
2022/06/30 01:00:39;;;;;;;4.30;3.80;;;17.10;99.90;;;;;;5032636;28;20484;-76
2022/06/30 01:03:08;;;;;;;6.17;4.30;;;17.00;99.90;;;;;;5033391;28;20939;-75
2022/06/30 01:05:35;;;;;;;6.27;4.10;;;17.00;99.90;;;;;;5032556;28;20820;-76
2022/06/30 01:08:03;;;;;;;4.70;4.10;;;17.00;99.90;;;;;;5032541;28;20479;-76
2022/06/30 01:13:14;;;;;;;4.23;3.93;;;16.90;99.90;;;;;;5032213;28;20447;-76
2022/06/30 01:15:42;;;;;;;5.03;4.00;;;16.90;99.90;;;;;;5031956;28;20486;-75
2022/06/30 01:18:09;;;;;;;4.33;3.83;;;16.90;99.90;;;;;;5031996;28;20477;-76
2022/06/30 01:20:36;;;;;;;4.37;3.93;;;16.90;99.90;;;;;;5031274;28;20856;-76
2022/06/30 01:23:05;;;;;;;4.57;4.17;;;16.90;99.90;;;;;;5032025;28;20460;-76
2022/06/30 01:25:35;;;;;;;4.53;4.00;;;16.90;99.90;;;;;;5031772;28;20456;-76
2022/06/30 01:28:01;;;;;;;4.17;3.77;;;16.90;99.90;;;;;;5031461;28;20567;-76
2022/06/30 01:30:28;;;;;;;4.93;4.53;;;16.80;99.90;;;;;;5031060;28;20518;-76
2022/06/30 01:32:55;;;;;;;4.33;4.03;;;16.80;99.90;;;;;;5031695;28;20471;-76
2022/06/30 01:35:22;;;;;;;4.40;3.90;;;16.80;99.90;;;;;;5031752;28;20839;-76
2022/06/30 01:37:52;;;;;;;4.67;3.97;;;16.80;99.90;;;;;;5031218;28;20490;-76
2022/06/30 01:40:21;;;;;;;4.40;3.93;;;16.80;99.90;;;;;;5030851;28;20929;-75
2022/06/30 01:42:49;;;;;;;6.13;4.20;;;16.70;99.90;;;;;;5030513;28;20498;-75
2022/06/30 01:45:17;;;;;;;4.83;4.33;;;16.70;99.90;;;;;;5031865;28;20464;-75
2022/06/30 01:47:44;;;;;;;4.70;4.30;;;16.70;99.90;;;;;;5031083;28;20480;-76
2022/06/30 01:50:14;;;;;;;4.53;4.13;;;16.70;99.90;;;;;;5030795;28;20461;-76
2022/06/30 01:52:41;;;;;;;5.10;4.60;;;16.60;99.90;;;;;;5031020;28;20460;-76
2022/06/30 01:55:09;;;;;;;4.83;4.30;;;16.60;99.90;;;;;;5031312;28;20460;-76
2022/06/30 01:57:38;;;;;;;5.73;4.50;;;16.50;99.90;;;;;;5031337;28;20481;-76
2022/06/30 02:00:08;;;;;;;5.07;4.57;;;16.50;99.90;;;;;;5030770;28;20532;-76
2022/06/30 02:02:35;;;;;;;5.13;4.40;;;16.50;99.90;;;;;;5031020;28;20456;-76
2022/06/30 02:05:02;;;;;;;4.50;4.10;;;16.50;99.90;;;;;;5031071;28;20558;-76
2022/06/30 02:07:29;;;;;;;6.77;4.30;;;16.40;99.90;;;;;;5030953;28;20491;-76
2022/06/30 02:09:56;;;;;;;4.30;3.90;;;16.40;99.90;;;;;;5030134;28;20471;-76
2022/06/30 02:15:12;;;;;;;6.03;5.53;;;16.40;99.90;;;;;;5031103;28;20447;-76
2022/06/30 02:17:39;;;;;;;5.67;5.20;;;16.30;99.90;;;;;;5030735;28;20539;-76
2022/06/30 02:20:08;;;;;;;5.33;4.83;;;16.40;99.90;;;;;;5030264;28;20473;-76
2022/06/30 02:22:35;;;;;;;5.03;4.60;;;16.40;99.90;;;;;;5030740;28;20461;-75
2022/06/30 02:25:02;;;;;;;9.00;4.93;;;16.40;99.90;;;;;;5030802;28;20465;-76
2022/06/30 02:27:29;;;;;;;5.10;4.60;;;16.40;99.90;;;;;;5030622;28;21057;-75
2022/06/30 02:29:56;;;;;;;5.33;4.77;;;16.40;99.90;;;;;;5029805;28;20567;-75
2022/06/30 02:32:24;;;;;;;5.37;4.60;;;16.40;99.90;;;;;;5030739;28;20978;-75
2022/06/30 02:34:51;;;;;;;7.43;5.97;;;16.40;99.90;;;;;;5030956;28;20471;-76
2022/06/30 02:37:19;;;;;;;5.20;4.60;;;16.30;99.90;;;;;;5030745;28;20483;-75
2022/06/30 02:39:46;;;;;;;4.93;4.43;;;16.30;99.90;;;;;;5029762;28;20960;-76
2022/06/30 02:42:13;;;;;;;5.20;4.80;;;16.30;99.90;;;;;;5030814;28;20530;-75
2022/06/30 02:44:39;;;;;;;6.27;4.63;;;16.20;99.90;;;;;;5030434;28;20460;-75
2022/06/30 02:47:06;;;;;;;5.87;5.27;;;16.20;99.90;;;;;;5030621;28;20502;-75
2022/06/30 02:49:36;;;;;;;5.83;5.13;;;16.20;99.90;;;;;;5029841;28;20982;-75
2022/06/30 02:52:03;;;;;;;7.87;5.07;;;16.20;99.90;;;;;;5030848;28;20522;-75
2022/06/30 02:54:29;;;;;;;5.70;5.20;;;16.20;99.90;;;;;;5034028;28;20985;-75
2022/06/30 02:56:56;;;;;;;6.43;5.93;;;16.10;99.90;;;;;;5034509;28;20479;-75
2022/06/30 02:59:23;;;;;;;6.43;5.80;;;16.10;99.90;;;;;;5034099;28;20838;-75
2022/06/30 03:01:50;;;;;;;6.00;5.40;;;16.10;99.90;;;;;;5034450;28;20495;-75
2022/06/30 03:04:16;;;;;;;5.73;5.23;;;16.20;99.90;;;;;;5034800;28;20820;-75
2022/06/30 03:06:45;;;;;;;5.47;4.97;;;16.10;99.90;;;;;;5034495;28;20464;-75
2022/06/30 03:09:11;;;;;;;5.83;5.33;;;16.20;99.90;;;;;;5034402;28;20464;-75
2022/06/30 03:11:39;;;;;;;8.10;5.50;;;16.10;99.90;;;;;;5049506;22;20478;-69
2022/06/30 03:14:06;;;;;;;6.60;5.90;;;16.10;99.90;;;;;;5034134;28;20452;-69
2022/06/30 03:16:32;;;;;;;9.63;6.40;;;16.10;99.90;;;;;;5034172;28;20482;-69
2022/06/30 03:18:59;;;;;;;6.10;5.50;;;16.10;99.90;;;;;;5034041;28;20455;-69
2022/06/30 03:21:26;;;;;;;5.83;5.33;;;16.10;99.90;;;;;;5033536;28;21007;-69
2022/06/30 03:23:54;;;;;;;5.83;5.33;;;16.10;99.90;;;;;;5034070;28;20463;-69
2022/06/30 03:26:21;;;;;;;6.67;6.17;;;16.10;99.90;;;;;;5034039;28;20467;-70
2022/06/30 03:28:47;;;;;;;7.07;6.40;;;16.10;99.90;;;;;;5034384;28;20982;-68
2022/06/30 03:31:14;;;;;;;5.23;4.83;;;16.00;99.90;;;;;;5032936;28;20467;-69
2022/06/30 03:33:41;;;;;;;5.90;5.40;;;16.00;99.90;;;;;;5038809;28;20466;-69
2022/06/30 03:36:08;;;;;;;6.23;5.60;;;16.10;99.90;;;;;;5053641;28;20934;-68
2022/06/30 03:38:34;;;;;;;5.93;5.43;;;16.00;99.90;;;;;;5053181;28;20483;-68
2022/06/30 03:41:02;;;;;;;6.53;5.93;;;16.00;99.90;;;;;;5053124;28;20487;-69
2022/06/30 03:43:29;;;;;;;5.63;5.13;;;16.00;99.90;;;;;;5053568;28;20459;-67
2022/06/30 03:45:56;;;;;;;8.00;5.90;;;16.00;99.90;;;;;;5053512;28;20463;-69
2022/06/30 03:48:23;;;;;;;5.30;4.90;;;15.90;99.90;;;;;;5053261;28;20483;-67
2022/06/30 03:50:49;;;;;;;7.53;5.73;;;16.00;99.90;;;;;;5053086;28;20839;-67
2022/06/30 03:53:16;;;;;;;6.13;5.57;;;15.90;99.90;;;;;;5053315;28;20471;-68
2022/06/30 03:55:43;;;;;;;6.27;5.67;;;15.90;99.90;;;;;;5053168;28;20463;-69
2022/06/30 03:58:11;;;;;;;5.83;5.43;;;15.90;99.90;;;;;;5053211;28;20904;-68
2022/06/30 04:00:38;;;;;;;5.90;5.37;;;15.90;99.90;;;;;;5052286;28;20459;-68
2022/06/30 04:03:05;;;;;;;6.80;6.10;;;16.00;99.90;;;;;;5041446;28;20455;-68
2022/06/30 04:05:32;;;;;;;5.87;5.37;;;16.00;99.90;;;;;;5031668;28;20460;-68
2022/06/30 04:07:59;;;;;;;5.80;5.30;;;16.00;99.90;;;;;;5044743;28;20475;-68
2022/06/30 04:10:25;;;;;;;6.13;5.63;;;16.10;99.90;;;;;;5052561;28;20463;-68
2022/06/30 04:12:52;;;;;;;6.40;5.80;;;16.10;99.90;;;;;;5052863;28;20962;-68
2022/06/30 04:15:20;;;;;;;5.93;5.43;;;16.10;99.90;;;;;;5052564;28;20493;-68
2022/06/30 04:17:47;;;;;;;5.70;5.10;;;16.10;99.90;;;;;;5053199;28;20479;-69
2022/06/30 04:20:17;;;;;;;5.90;5.30;;;16.10;99.90;;;;;;5052536;28;20946;-71
2022/06/30 04:22:45;;;;;;;6.27;5.63;;;16.10;99.90;;;;;;5053278;28;20846;-70
2022/06/30 04:25:12;;;;;;;6.87;6.27;;;16.10;99.90;;;;;;5053210;28;20463;-70
2022/06/30 04:27:43;;;;;;;6.40;5.90;;;16.20;99.90;;;;;;5052828;28;20890;-71
2022/06/30 04:30:11;;;;;;;5.80;5.30;;;16.20;99.90;;;;;;5052608;28;20463;-70
2022/06/30 04:32:39;;;;;;;6.10;5.60;;;16.20;99.90;;;;;;5052612;28;20468;-69
2022/06/30 04:35:08;;;;;;;6.37;5.57;;;16.30;99.90;;;;;;5052949;28;20464;-69
2022/06/30 04:37:35;;;;;;;6.00;5.33;;;16.30;99.90;;;;;;5052390;28;20562;-69
2022/06/30 04:42:46;;;;;;;6.07;5.50;;;16.40;99.90;;;;;;5052678;28;20486;-69
2022/06/30 04:45:13;;;;;;;5.97;5.37;;;16.40;99.90;;;;;;5052586;28;20459;-68
2022/06/30 04:47:41;;;;;;;6.80;6.20;;;16.50;99.90;;;;;;5052308;28;20554;-68
2022/06/30 04:50:09;;;;;;;6.53;5.93;;;16.50;99.90;;;;;;5052142;28;20529;-68
2022/06/30 04:52:36;;;;;;;7.10;5.83;;;16.60;99.90;;;;;;5052322;28;20464;-69
2022/06/30 04:55:03;;;;;;;6.60;5.87;;;16.60;99.90;;;;;;5052487;28;20955;-69
2022/06/30 04:57:30;;;;;;;8.13;5.00;;;16.70;99.90;;;;;;5052036;28;20483;-68
2022/06/30 04:59:56;;;;;;;6.70;5.40;;;16.80;99.90;;;;;;5051941;28;20482;-69
2022/06/30 05:02:23;;;;;;;6.50;5.87;;;16.80;99.90;;;;;;5051861;28;20494;-70
2022/06/30 05:04:51;;;;;;;9.20;5.97;;;16.90;99.90;;;;;;5052465;28;20459;-70
2022/06/30 05:07:18;;;;;;;6.20;5.33;;;16.90;99.90;;;;;;5051929;28;20478;-70
2022/06/30 05:09:45;;;;;;;6.70;5.80;;;17.00;99.90;;;;;;5051425;28;20459;-69
2022/06/30 05:12:12;;;;;;;7.40;6.10;;;17.10;99.90;;;;;;5052032;28;20467;-70
2022/06/30 05:14:38;;;;;;;6.73;6.07;;;17.20;99.90;;;;;;5051539;28;20462;-69
2022/06/30 05:17:06;;;;;;;8.47;6.10;;;17.30;99.90;;;;;;5051778;28;20475;-69
2022/06/30 05:19:33;;;;;;;6.83;5.60;;;17.40;99.90;;;;;;5050977;28;20471;-69
2022/06/30 05:22:01;;;;;;;6.70;6.00;;;17.40;99.90;;;;;;5052035;28;20506;-69
2022/06/30 05:27:13;;;;;;;7.20;5.97;;;17.60;99.90;;;;;;5051949;28;20538;-69
2022/06/30 05:29:39;;;;;;;6.73;6.20;;;17.70;99.90;;;;;;5050968;28;20459;-69
2022/06/30 05:32:07;;;;;;;7.80;7.00;;;17.90;99.90;;;;;;5051766;28;20460;-69
2022/06/30 05:34:34;;;;;;;7.20;6.40;;;18.00;99.90;;;;;;5051593;28;20574;-69
2022/06/30 05:37:02;;;;;;;8.00;6.80;;;18.10;99.90;;;;;;5051768;28;20858;-69
2022/06/30 05:39:31;;;;;;;10.27;7.23;;;18.20;99.90;;;;;;5050857;28;20459;-70
2022/06/30 05:41:58;;;;;;;7.17;6.50;;;18.40;99.90;;;;;;5051798;28;20483;-69
2022/06/30 05:44:24;;;;;;;7.37;6.67;;;18.40;99.90;;;;;;5051172;28;20482;-69
2022/06/30 05:46:51;;;;;;;6.93;6.30;;;18.50;99.90;;;;;;5051482;28;20483;-69
2022/06/30 05:49:18;;;;;;;8.33;6.70;;;18.60;99.90;;;;;;5050409;28;20814;-69
2022/06/30 05:51:45;;;;;;;8.20;6.57;;;18.70;99.90;;;;;;5051432;28;20459;-69
2022/06/30 05:54:13;;;;;;;7.17;6.00;;;18.80;99.90;;;;;;5051346;28;20459;-69
2022/06/30 05:56:40;;;;;;;7.33;6.67;;;18.90;99.90;;;;;;5050845;28;20895;-69
2022/06/30 05:59:06;;;;;;;7.10;6.50;;;19.00;99.90;;;;;;5051035;28;20834;-70
2022/06/30 06:01:33;;;;;;;8.67;7.03;;;19.10;99.90;;;;;;5050732;28;20491;-69
2022/06/30 06:04:00;;;;;;;8.10;7.30;;;19.20;99.90;;;;;;5051272;28;20486;-69
2022/06/30 06:06:26;;;;;;;7.30;6.70;;;19.40;99.90;;;;;;5050740;28;20963;-69
2022/06/30 06:08:53;;;;;;;7.73;6.90;;;19.50;99.90;;;;;;5050964;28;20483;-68
2022/06/30 06:11:21;;;;;;;6.50;5.90;;;19.60;99.90;;;;;;5050571;28;20467;-69
2022/06/30 06:13:48;;;;;;;9.10;6.60;;;19.70;99.90;;;;;;5050942;28;20962;-69
2022/06/30 06:16:14;;;;;;;7.10;6.50;;;19.80;99.90;;;;;;5050730;28;20471;-69
2022/06/30 06:18:41;;;;;;;9.50;7.40;;;19.90;99.90;;;;;;5050798;28;20475;-68
2022/06/30 06:21:08;;;;;;;7.40;6.70;;;20.10;99.90;;;;;;5050194;28;20467;-70
2022/06/30 06:23:35;;;;;;;7.03;6.43;;;20.10;99.90;;;;;;5050902;28;20816;-69
2022/06/30 06:26:01;;;;;;;10.10;7.07;;;20.30;99.90;;;;;;5050777;28;20470;-68
2022/06/30 06:31:13;;;;;;;6.67;6.07;;;20.50;99.90;;;;;;5050326;28;20447;-68
2022/06/30 06:33:40;;;;;;;8.90;6.60;;;20.70;99.90;;;;;;5050700;28;20836;-69
2022/06/30 06:36:07;;;;;;;8.33;6.40;;;20.80;99.90;;;;;;5050769;28;20471;-68
2022/06/30 06:38:34;;;;;;;8.30;6.90;;;20.80;99.90;;;;;;5050664;28;20490;-69
2022/06/30 06:41:02;;;;;;;7.27;6.57;;;20.90;99.90;;;;;;5050233;28;20950;-69
2022/06/30 06:43:30;;;;;;;8.23;6.50;;;21.00;99.90;;;;;;5050331;28;20483;-69
2022/06/30 06:45:57;;;;;;;12.17;7.70;;;21.10;99.90;;;;;;5050661;28;20460;-69
2022/06/30 06:48:23;;;;;;;10.40;7.20;;;21.20;99.90;;;;;;5050063;28;20853;-69
2022/06/30 06:50:50;;;;;;;8.57;7.40;;;21.20;99.90;;;;;;5050316;28;20846;-69
2022/06/30 06:53:17;;;;;;;9.03;6.80;;;21.30;99.90;;;;;;5050422;28;20460;-70
2022/06/30 06:55:43;;;;;;;9.20;7.50;;;21.40;99.90;;;;;;5050466;28;20459;-69
2022/06/30 06:58:10;;;;;;;7.53;6.70;;;21.50;99.90;;;;;;5050210;28;20515;-69
2022/06/30 07:00:39;;;;;;;7.77;6.30;;;21.60;99.90;;;;;;5049820;28;20921;-69
2022/06/30 07:03:05;;;;;;;7.40;6.10;;;21.70;99.90;;;;;;5050272;28;20483;-69
2022/06/30 07:05:32;;;;;;;8.27;6.53;;;21.80;99.90;;;;;;5050629;28;20467;-69
2022/06/30 07:08:00;;;;;;;6.57;5.87;;;21.80;99.90;;;;;;5050309;28;20479;-69
2022/06/30 07:10:28;;;;;;;7.53;5.63;;;21.90;99.90;;;;;;5049660;28;20466;-69
2022/06/30 07:12:55;;;;;;;6.03;5.30;;;22.00;99.90;;;;;;5050337;28;20463;-69
2022/06/30 07:15:22;;;;;;;7.20;5.57;;;22.10;99.90;;;;;;5050289;28;20459;-69
2022/06/30 07:17:50;;;;;;;7.10;6.40;;;22.20;99.90;;;;;;5050057;28;20523;-68
2022/06/30 07:20:17;;;;;;;7.10;6.40;;;22.30;99.90;;;;;;5049643;28;20459;-69
2022/06/30 07:22:44;;;;;;;7.40;6.73;;;22.30;99.90;;;;;;5050431;28;20833;-69
2022/06/30 07:25:11;;;;;;;6.77;6.17;;;22.40;99.90;;;;;;5050099;28;20970;-69
2022/06/30 07:27:37;;;;;;;6.33;5.73;;;22.50;99.90;;;;;;5050172;28;20583;-69
2022/06/30 07:30:05;;;;;;;6.93;6.33;;;22.50;99.90;;;;;;5049558;28;20459;-69
2022/06/30 07:32:32;;;;;;;6.67;6.07;;;22.60;99.90;;;;;;5049859;28;20486;-69
2022/06/30 07:35:00;;;;;;;5.90;5.40;;;22.60;99.90;;;;;;5050254;28;20466;-68
2022/06/30 07:37:26;;;;;;;6.43;5.60;;;22.80;99.90;;;;;;5049857;28;20480;-69
2022/06/30 07:39:53;;;;;;;5.73;5.33;;;22.90;99.90;;;;;;5050182;28;20459;-70
2022/06/30 07:42:20;;;;;;;5.80;5.20;;;22.90;99.90;;;;;;5053531;28;21020;-69
2022/06/30 07:44:46;;;;;;;6.10;5.60;;;23.10;99.90;;;;;;5053760;28;20488;-70
2022/06/30 07:47:14;;;;;;;7.70;5.37;;;23.10;99.90;;;;;;5053578;28;20490;-70
2022/06/30 07:49:41;;;;;;;6.17;5.57;;;23.20;99.90;;;;;;5053121;28;20465;-69
2022/06/30 07:52:09;;;;;;;6.97;5.70;;;23.20;99.90;;;;;;5053867;28;20954;-69
2022/06/30 07:54:36;;;;;;;6.03;5.53;;;23.20;99.90;;;;;;5053516;28;20529;-69
2022/06/30 07:57:03;;;;;;;6.20;5.57;;;23.20;99.90;;;;;;5053518;28;20994;-69
2022/06/30 07:59:30;;;;;;;8.70;5.80;;;23.40;99.90;;;;;;5052833;28;20983;-68
2022/06/30 08:01:56;;;;;;;7.23;5.17;;;23.50;99.90;;;;;;5053569;28;20470;-69
2022/06/30 08:04:23;;;;;;;7.43;5.60;;;23.60;99.90;;;;;;5053313;28;20456;-69
2022/06/30 08:06:50;;;;;;;5.57;5.07;;;23.70;99.90;;;;;;5053525;28;20859;-69
2022/06/30 08:09:18;;;;;;;8.37;5.20;;;23.80;99.90;;;;;;5052590;28;20465;-69
2022/06/30 08:11:45;;;;;;;6.33;4.90;;;24.00;99.90;;;;;;5053037;28;20457;-69
2022/06/30 08:14:12;;;;;;;6.47;5.60;;;24.00;99.90;;;;;;5053248;28;20462;-70
2022/06/30 08:16:39;;;;;;;5.60;5.03;;;24.10;99.90;;;;;;5052758;28;20529;-69
2022/06/30 08:19:05;;;;;;;7.53;5.20;;;24.10;99.90;;;;;;5053161;28;20807;-70
2022/06/30 08:21:32;;;;;;;5.30;4.80;;;24.20;99.90;;;;;;5052581;28;20472;-70
2022/06/30 08:23:59;;;;;;;5.80;5.13;;;24.30;99.90;;;;;;5052919;28;20490;-69
2022/06/30 08:26:27;;;;;;;6.33;5.37;;;24.40;99.90;;;;;;5052809;28;20465;-69
2022/06/30 08:28:53;;;;;;;9.87;4.83;;;24.50;99.90;;;;;;5052619;28;20486;-69
2022/06/30 08:31:20;;;;;;;6.10;5.60;;;24.50;99.90;;;;;;5052141;28;20463;-69
2022/06/30 08:33:50;;;;;;;5.53;5.13;;;24.50;99.90;;;;;;5052969;28;20466;-70
2022/06/30 08:36:16;;;;;;;6.13;5.30;;;24.60;99.90;;;;;;5052653;28;21013;-69
2022/06/30 08:38:44;;;;;;;6.23;5.60;;;24.70;99.90;;;;;;5052569;28;20486;-70
2022/06/30 08:43:58;;;;;;;9.73;4.47;;;24.90;99.90;;;;;;5053093;28;20598;-69
2022/06/30 08:46:26;;;;;;;6.60;5.57;;;25.00;99.90;;;;;;5052414;28;20460;-69
2022/06/30 08:48:54;;;;;;;6.73;4.87;;;25.10;99.90;;;;;;5052759;28;20479;-69
2022/06/30 08:51:21;;;;;;;5.13;4.67;;;25.10;99.90;;;;;;5051703;28;20455;-70
2022/06/30 08:53:52;;;;;;;4.50;4.10;;;25.20;99.90;;;;;;5052878;28;20554;-69
2022/06/30 08:56:19;;;;;;;5.50;4.53;;;25.30;99.90;;;;;;5052349;28;20525;-69
2022/06/30 08:58:48;;;;;;;6.63;4.33;;;25.30;99.90;;;;;;5052299;28;20895;-69
2022/06/30 09:01:17;;;;;;;6.00;4.53;;;25.40;99.90;;;;;;5051828;28;20464;-69
2022/06/30 09:03:44;;;;;;;5.70;4.80;;;25.40;99.90;;;;;;5052201;28;20872;-69
2022/06/30 09:06:11;;;;;;;8.83;4.10;;;25.50;99.90;;;;;;5052355;28;20879;-70
2022/06/30 09:08:38;;;;;;;3.80;3.47;;;25.60;99.90;;;;;;5052199;28;20819;-69
2022/06/30 09:11:05;;;;;;;4.73;3.50;;;25.70;99.90;;;;;;5052029;28;20475;-69
2022/06/30 09:13:41;;;;;;;3.70;3.40;;;25.90;99.90;;;;;;5096175;22;20486;-90
2022/06/30 09:16:07;;;;;;;5.77;3.97;;;26.00;99.90;;;;;;5094065;28;20446;-90
2022/06/30 09:18:36;;;;;;;5.90;4.00;;;26.10;99.90;;;;;;5094127;28;20973;-90
2022/06/30 09:21:14;;;;;;;4.60;4.20;;;26.30;99.90;;;;;;5094062;28;20963;-90
2022/06/30 09:23:43;;;;;;;5.87;4.20;;;26.30;99.90;;;;;;5107308;28;20489;-90
2022/06/30 09:26:18;;;;;;;4.23;3.83;;;26.40;99.90;;;;;;5114636;28;20463;-90
2022/06/30 09:28:46;;;;;;;4.00;3.60;;;26.50;99.90;;;;;;5114232;28;20460;-90
2022/06/30 09:31:14;;;;;;;6.07;4.07;;;26.60;99.90;;;;;;5114327;28;20475;-92
2022/06/30 09:33:47;;;;;;;3.53;3.23;;;26.80;99.90;;;;;;5113761;28;20498;-92
2022/06/30 09:36:22;;;;;;;4.23;3.87;;;26.90;99.90;;;;;;5114806;28;20494;-92
2022/06/30 09:39:04;;;;;;;3.70;3.37;;;27.10;99.90;;;;;;5114254;28;20492;-92
2022/06/30 09:41:32;;;;;;;5.30;3.47;;;27.20;99.90;;;;;;5114279;28;20469;-93
2022/06/30 09:43:59;;;;;;;3.37;3.07;;;27.20;99.90;;;;;;5114253;28;20493;-92
2022/06/30 09:46:26;;;;;;;4.00;2.90;;;27.30;99.90;;;;;;5115126;28;20543;-92
2022/06/30 09:48:54;;;;;;;5.27;3.13;;;27.40;99.90;;;;;;5114235;28;20456;-92
2022/06/30 09:51:21;;;;;;;6.27;3.50;;;27.40;99.90;;;;;;5114029;28;20839;-92
2022/06/30 09:54:06;;;;;;;5.73;3.50;;;27.40;99.90;;;;;;5113947;28;20484;-92
2022/06/30 09:56:33;;;;;;;4.07;3.37;;;27.40;99.90;;;;;;5115421;28;20977;-92
2022/06/30 09:59:00;;;;;;;4.30;3.33;;;27.50;99.90;;;;;;5128929;27;20436;-92
2022/06/30 10:01:26;;;;;;;3.60;3.30;;;27.60;99.90;;;;;;5117799;28;20459;-92
2022/06/30 10:04:00;;;;;;;3.77;3.47;;;27.80;99.90;;;;;;5114594;28;20869;-93
2022/06/30 10:06:27;;;;;;;3.90;3.60;;;27.90;99.90;;;;;;5115792;28;20452;-92
2022/06/30 10:08:55;;;;;;;6.07;3.50;;;27.90;99.90;;;;;;5115220;28;20462;-92
2022/06/30 10:11:23;;;;;;;4.50;3.70;;;28.00;99.90;;;;;;5115978;28;20876;-93
2022/06/30 10:13:50;;;;;;;5.10;3.20;;;28.00;99.90;;;;;;5115990;28;20563;-92
2022/06/30 10:16:20;;;;;;;4.83;4.27;;;28.00;99.90;;;;;;5114686;28;20868;-93
2022/06/30 10:18:47;;;;;;;4.37;3.87;;;28.00;99.90;;;;;;5115395;28;20463;-92
2022/06/30 10:21:16;;;;;;;4.63;4.23;;;28.00;99.90;;;;;;5113608;28;20452;-92
2022/06/30 10:23:44;;;;;;;4.57;4.10;;;28.00;99.90;;;;;;5115053;28;20486;-93
2022/06/30 10:27:12;;;;;;;3.77;3.47;;;28.10;99.90;;;;;;5114012;28;20462;-92
2022/06/30 10:28:58;;;;;;;4.80;3.67;;;28.20;99.90;;;;;;5114314;28;20514;-93
2022/06/30 10:31:34;;;;;;;6.43;3.67;;;28.50;99.90;;;;;;5115321;28;20462;-91
2022/06/30 10:34:07;;;;;;;6.13;4.20;;;28.60;99.90;;;;;;5115499;28;20469;-92
2022/06/30 10:36:43;;;;;;;4.03;3.63;;;28.70;99.90;;;;;;5115364;28;20465;-91
2022/06/30 10:39:23;;;;;;;4.30;3.90;;;28.70;99.90;;;;;;5115266;28;20515;-92
2022/06/30 10:41:53;;;;;;;4.30;3.97;;;28.70;99.90;;;;;;5115263;28;20481;-92
2022/06/30 10:44:22;;;;;;;3.90;3.50;;;28.70;99.90;;;;;;5114849;28;21003;-91
2022/06/30 10:47:14;;;;;;;5.23;3.80;;;28.70;99.90;;;;;;5114815;28;20531;-92
2022/06/30 10:49:55;;;;;;;5.27;4.00;;;28.80;99.90;;;;;;5114815;28;20467;-92
2022/06/30 10:52:25;;;;;;;3.90;3.60;;;28.80;99.90;;;;;;5117501;28;20519;-93
2022/06/30 10:55:01;;;;;;;5.90;4.23;;;28.70;99.90;;;;;;5117220;28;20482;-93
2022/06/30 10:58:17;;;;;;;4.57;4.17;;;28.70;99.90;;;;;;5114851;28;20462;-92
2022/06/30 11:01:22;;;;;;;;;;;;;;;;;;;;;
2022/06/30 11:04:02;;;;;;;4.13;3.70;;;29.00;99.90;;;;;;5050832;28;20541;-93
2022/06/30 11:07:02;;;;;;;6.53;3.73;;;29.10;99.90;;;;;;5114852;28;20804;-92
2022/06/30 11:13:32;;;;;;;4.40;4.10;;;29.60;99.90;;;;;;5051227;28;20570;-92
2022/06/30 11:15:59;;;;;;;5.20;4.17;;;29.80;99.90;;;;;;5056148;28;20458;-93
2022/06/30 11:18:27;;;;;;;4.90;4.07;;;29.90;99.90;;;;;;5106383;28;20459;-92
2022/06/30 11:20:55;;;;;;;4.40;4.00;;;30.00;99.90;;;;;;5119974;28;21011;-91
2022/06/30 11:23:23;;;;;;;5.13;4.10;;;30.00;99.90;;;;;;5121317;28;20831;-93
2022/06/30 11:28:39;;;;;;;4.73;4.03;;;30.20;99.90;;;;;;5140558;27;20455;-91
2022/06/30 11:31:21;;;;;;;4.57;4.17;;;30.30;99.90;;;;;;5127061;27;20453;-93
2022/06/30 11:37:33;;;;;;;3.90;3.60;;;30.60;99.90;;;;;;5079388;28;20455;-92
2022/06/30 11:40:05;;;;;;;4.60;4.20;;;30.50;99.90;;;;;;5124981;27;20458;-93
2022/06/30 11:42:32;;;;;;;4.30;3.90;;;30.70;99.90;;;;;;5141418;27;20464;-89
2022/06/30 11:45:48;;;;;;;4.47;3.70;;;30.70;99.90;;;;;;5124245;28;20459;-93
2022/06/30 11:48:16;;;;;;;4.40;3.40;;;30.70;99.90;;;;;;5056851;28;20876;-93
2022/06/30 11:50:44;;;;;;;4.77;4.00;;;30.70;99.90;;;;;;5104532;28;20501;-94
2022/06/30 11:53:11;;;;;;;6.30;4.13;;;30.60;99.90;;;;;;5120228;28;20492;-94
2022/06/30 11:55:38;;;;;;;4.10;3.80;;;30.60;99.90;;;;;;5119931;28;20533;-93
2022/06/30 11:58:05;;;;;;;4.70;4.17;;;30.70;99.90;;;;;;5119180;28;20450;-94
2022/06/30 12:00:33;;;;;;;7.30;4.30;;;31.00;99.90;;;;;;5119905;28;20465;-93
2022/06/30 12:03:00;;;;;;;4.87;3.50;;;31.00;99.90;;;;;;5118166;28;20525;-93
2022/06/30 12:05:28;;;;;;;3.97;3.67;;;31.10;99.90;;;;;;5117602;28;20502;-91
2022/06/30 12:07:56;;;;;;;4.10;3.80;;;31.00;99.70;;;;;;5118095;28;20455;-90
2022/06/30 12:10:24;;;;;;;5.43;4.63;;;31.10;99.90;;;;;;5117019;28;20853;-93
2022/06/30 12:12:51;;;;;;;5.07;3.80;;;31.00;99.90;;;;;;5117305;28;20938;-91
2022/06/30 12:15:19;;;;;;;4.80;3.60;;;30.90;96.30;;;;;;5117695;28;20489;-95
2022/06/30 12:17:47;;;;;;;4.80;4.13;;;30.80;99.70;;;;;;5117824;28;20463;-93
2022/06/30 12:20:16;;;;;;;5.93;4.13;;;30.90;99.30;;;;;;5116962;28;20968;-93
2022/06/30 12:22:46;;;;;;;4.30;3.90;;;31.00;99.90;;;;;;5117750;28;21001;-94
2022/06/30 12:25:14;;;;;;;6.50;4.00;;;31.20;99.90;;;;;;5116915;28;20460;-90
2022/06/30 12:27:43;;;;;;;4.87;4.00;;;31.30;99.90;;;;;;5119627;28;20469;-90
2022/06/30 12:30:13;;;;;;;4.20;3.90;;;31.50;99.90;;;;;;5130126;28;20467;-90
2022/06/30 12:32:40;;;;;;;6.30;4.27;;;31.60;99.60;;;;;;5131802;28;20481;-93
2022/06/30 12:35:09;;;;;;;5.67;3.57;;;31.50;99.90;;;;;;5119209;28;20499;-91
2022/06/30 12:37:38;;;;;;;4.30;4.00;;;31.40;99.70;;;;;;5118122;28;20471;-94
2022/06/30 12:40:08;;;;;;;6.23;4.07;;;31.50;99.90;;;;;;5119818;28;20462;-92
2022/06/30 12:42:46;;;;;;;6.00;3.63;;;31.50;98.20;;;;;;5119089;28;20487;-91
2022/06/30 12:45:34;;;;;;;4.80;4.27;;;31.20;99.10;;;;;;5124525;28;20836;-90
2022/06/30 12:48:02;;;;;;;6.33;4.07;;;30.80;99.70;;;;;;5136894;28;20459;-91
2022/06/30 12:50:31;;;;;;;4.93;4.00;;;30.90;98.90;;;;;;5119213;28;20469;-91
2022/06/30 12:53:16;;;;;;;4.70;3.80;;;31.00;99.90;;;;;;5117574;28;20482;-93
2022/06/30 12:55:58;;;;;;;4.30;3.90;;;31.20;99.60;;;;;;5118540;28;20938;-91
2022/06/30 12:58:24;;;;;;;4.00;3.40;;;31.30;99.90;;;;;;5118904;28;20462;-91
2022/06/30 13:00:51;;;;;;;6.67;4.30;;;31.40;99.90;;;;;;5120317;28;20462;-92
2022/06/30 13:03:19;;;;;;;4.20;3.80;;;31.60;99.90;;;;;;5122928;28;20479;-91
2022/06/30 13:05:46;;;;;;;5.00;3.97;;;31.70;98.80;;;;;;5120242;28;20462;-91
2022/06/30 13:08:13;;;;;;;5.60;3.73;;;31.90;99.30;;;;;;5120140;28;20842;-91
2022/06/30 13:13:25;;;;;;;4.37;4.07;;;31.60;97.10;;;;;;5119531;28;20503;-94
2022/06/30 13:15:52;;;;;;;4.50;4.10;;;31.20;97.60;;;;;;5116771;28;20954;-91
2022/06/30 13:18:18;;;;;;;5.97;4.03;;;31.10;98.90;;;;;;5116699;28;20460;-91
2022/06/30 13:20:45;;;;;;;4.00;3.70;;;31.20;99.90;;;;;;5116796;28;20459;-92
2022/06/30 13:23:12;;;;;;;4.70;4.30;;;31.10;97.30;;;;;;5117141;28;20486;-91
2022/06/30 13:25:38;;;;;;;6.80;4.47;;;31.10;98.60;;;;;;5116179;28;20460;-91